sensor_id;sensor_type;location;lat;lon;timestamp;P1;durP1;ratioP1;P2;durP2;ratioP2
16522;SDS011;19889;52.546;13.348;2022-08-19T00:02:16;615.75;;;562.67;;
16522;SDS011;19889;52.546;13.348;2022-08-19T00:04:42;629.85;;;576.45;;
16522;SDS011;19889;52.546;13.348;2022-08-19T00:07:11;625.10;;;571.70;;
16522;SDS011;19889;52.546;13.348;2022-08-19T00:09:38;628.30;;;575.28;;
16522;SDS011;19889;52.546;13.348;2022-08-19T00:12:06;611.08;;;557.30;;
16522;SDS011;19889;52.546;13.348;2022-08-19T00:14:33;633.47;;;579.95;;
16522;SDS011;19889;52.546;13.348;2022-08-19T00:17:00;613.40;;;560.45;;
16522;SDS011;19889;52.546;13.348;2022-08-19T00:19:28;608.55;;;555.63;;
16522;SDS011;19889;52.546;13.348;2022-08-19T00:21:55;622.72;;;569.53;;
16522;SDS011;19889;52.546;13.348;2022-08-19T00:24:22;615.40;;;562.40;;
16522;SDS011;19889;52.546;13.348;2022-08-19T00:26:49;626.70;;;573.58;;
16522;SDS011;19889;52.546;13.348;2022-08-19T00:29:18;632.65;;;579.28;;
16522;SDS011;19889;52.546;13.348;2022-08-19T00:31:47;623.58;;;570.13;;
16522;SDS011;19889;52.546;13.348;2022-08-19T00:34:15;616.00;;;563.38;;
16522;SDS011;19889;52.546;13.348;2022-08-19T00:36:42;609.85;;;556.85;;
16522;SDS011;19889;52.546;13.348;2022-08-19T00:39:10;619.47;;;566.17;;
16522;SDS011;19889;52.546;13.348;2022-08-19T00:41:38;612.85;;;560.33;;
16522;SDS011;19889;52.546;13.348;2022-08-19T00:44:06;616.65;;;564.15;;
16522;SDS011;19889;52.546;13.348;2022-08-19T00:46:37;621.35;;;567.67;;
16522;SDS011;19889;52.546;13.348;2022-08-19T00:49:06;605.03;;;551.97;;
16522;SDS011;19889;52.546;13.348;2022-08-19T00:51:39;613.72;;;560.72;;
16522;SDS011;19889;52.546;13.348;2022-08-19T00:54:07;597.42;;;544.85;;
16522;SDS011;19889;52.546;13.348;2022-08-19T00:56:34;618.90;;;564.92;;
16522;SDS011;19889;52.546;13.348;2022-08-19T00:59:01;601.55;;;548.72;;
16522;SDS011;19889;52.546;13.348;2022-08-19T01:01:31;592.05;;;539.55;;
16522;SDS011;19889;52.546;13.348;2022-08-19T01:03:59;606.47;;;554.08;;
16522;SDS011;19889;52.546;13.348;2022-08-19T01:06:26;632.17;;;576.80;;
16522;SDS011;19889;52.546;13.348;2022-08-19T01:08:53;613.22;;;559.85;;
16522;SDS011;19889;52.546;13.348;2022-08-19T01:11:20;610.83;;;557.28;;
16522;SDS011;19889;52.546;13.348;2022-08-19T01:13:47;615.05;;;561.55;;
16522;SDS011;19889;52.546;13.348;2022-08-19T01:16:16;608.42;;;554.53;;
16522;SDS011;19889;52.546;13.348;2022-08-19T01:18:45;609.88;;;557.03;;
16522;SDS011;19889;52.546;13.348;2022-08-19T01:21:15;617.38;;;564.15;;
16522;SDS011;19889;52.546;13.348;2022-08-19T01:23:49;591.25;;;538.70;;
16522;SDS011;19889;52.546;13.348;2022-08-19T01:26:17;609.97;;;556.42;;
16522;SDS011;19889;52.546;13.348;2022-08-19T01:28:46;613.92;;;560.80;;
16522;SDS011;19889;52.546;13.348;2022-08-19T01:31:15;615.85;;;562.70;;
16522;SDS011;19889;52.546;13.348;2022-08-19T01:33:46;595.78;;;542.85;;
16522;SDS011;19889;52.546;13.348;2022-08-19T01:36:13;606.35;;;553.13;;
16522;SDS011;19889;52.546;13.348;2022-08-19T01:38:43;601.35;;;548.90;;
16522;SDS011;19889;52.546;13.348;2022-08-19T01:41:12;600.03;;;547.10;;
16522;SDS011;19889;52.546;13.348;2022-08-19T01:43:39;596.63;;;543.53;;
16522;SDS011;19889;52.546;13.348;2022-08-19T01:46:06;611.20;;;557.95;;
16522;SDS011;19889;52.546;13.348;2022-08-19T01:48:34;608.70;;;555.42;;
16522;SDS011;19889;52.546;13.348;2022-08-19T01:51:03;589.42;;;536.92;;
16522;SDS011;19889;52.546;13.348;2022-08-19T01:53:30;592.70;;;539.97;;
16522;SDS011;19889;52.546;13.348;2022-08-19T01:55:57;600.85;;;548.05;;
16522;SDS011;19889;52.546;13.348;2022-08-19T01:58:26;605.13;;;551.13;;
16522;SDS011;19889;52.546;13.348;2022-08-19T02:00:58;588.22;;;534.88;;
16522;SDS011;19889;52.546;13.348;2022-08-19T02:03:25;583.35;;;530.63;;
16522;SDS011;19889;52.546;13.348;2022-08-19T02:05:55;577.58;;;524.55;;
16522;SDS011;19889;52.546;13.348;2022-08-19T02:08:24;591.78;;;538.60;;
16522;SDS011;19889;52.546;13.348;2022-08-19T02:10:52;591.13;;;537.97;;
16522;SDS011;19889;52.546;13.348;2022-08-19T02:13:19;582.83;;;529.67;;
16522;SDS011;19889;52.546;13.348;2022-08-19T02:15:47;601.60;;;547.97;;
16522;SDS011;19889;52.546;13.348;2022-08-19T02:18:14;583.13;;;530.28;;
16522;SDS011;19889;52.546;13.348;2022-08-19T02:20:42;591.50;;;539.03;;
16522;SDS011;19889;52.546;13.348;2022-08-19T02:23:12;577.15;;;524.42;;
16522;SDS011;19889;52.546;13.348;2022-08-19T02:25:40;586.40;;;533.53;;
16522;SDS011;19889;52.546;13.348;2022-08-19T02:28:07;581.25;;;528.53;;
16522;SDS011;19889;52.546;13.348;2022-08-19T02:30:34;572.85;;;520.47;;
16522;SDS011;19889;52.546;13.348;2022-08-19T02:33:02;580.63;;;527.72;;
16522;SDS011;19889;52.546;13.348;2022-08-19T02:35:29;569.00;;;516.53;;
16522;SDS011;19889;52.546;13.348;2022-08-19T02:37:55;565.83;;;513.53;;
16522;SDS011;19889;52.546;13.348;2022-08-19T02:40:40;558.15;;;505.77;;
16522;SDS011;19889;52.546;13.348;2022-08-19T02:43:14;567.63;;;514.95;;
16522;SDS011;19889;52.546;13.348;2022-08-19T02:45:41;557.75;;;505.67;;
16522;SDS011;19889;52.546;13.348;2022-08-19T02:48:09;544.00;;;491.83;;
16522;SDS011;19889;52.546;13.348;2022-08-19T02:50:37;562.78;;;510.05;;
16522;SDS011;19889;52.546;13.348;2022-08-19T02:53:05;571.42;;;518.55;;
16522;SDS011;19889;52.546;13.348;2022-08-19T02:55:33;566.45;;;513.88;;
16522;SDS011;19889;52.546;13.348;2022-08-19T02:58:00;550.28;;;498.33;;
16522;SDS011;19889;52.546;13.348;2022-08-19T03:00:27;562.35;;;510.05;;
16522;SDS011;19889;52.546;13.348;2022-08-19T03:02:54;555.15;;;503.15;;
16522;SDS011;19889;52.546;13.348;2022-08-19T03:05:23;561.53;;;509.30;;
16522;SDS011;19889;52.546;13.348;2022-08-19T03:07:50;574.30;;;521.22;;
16522;SDS011;19889;52.546;13.348;2022-08-19T03:10:16;561.22;;;508.73;;
16522;SDS011;19889;52.546;13.348;2022-08-19T03:12:43;576.97;;;524.30;;
16522;SDS011;19889;52.546;13.348;2022-08-19T03:15:11;558.97;;;505.52;;
16522;SDS011;19889;52.546;13.348;2022-08-19T03:17:38;562.53;;;510.30;;
16522;SDS011;19889;52.546;13.348;2022-08-19T03:20:05;550.47;;;498.55;;
16522;SDS011;19889;52.546;13.348;2022-08-19T03:22:33;555.75;;;503.48;;
16522;SDS011;19889;52.546;13.348;2022-08-19T03:25:00;561.35;;;508.67;;
16522;SDS011;19889;52.546;13.348;2022-08-19T03:27:27;563.15;;;511.20;;
16522;SDS011;19889;52.546;13.348;2022-08-19T03:29:54;553.83;;;501.40;;
16522;SDS011;19889;52.546;13.348;2022-08-19T03:32:21;559.17;;;506.55;;
16522;SDS011;19889;52.546;13.348;2022-08-19T03:34:48;557.83;;;505.70;;
16522;SDS011;19889;52.546;13.348;2022-08-19T03:37:16;559.20;;;507.00;;
16522;SDS011;19889;52.546;13.348;2022-08-19T03:39:44;559.88;;;507.60;;
16522;SDS011;19889;52.546;13.348;2022-08-19T03:42:11;570.00;;;516.90;;
16522;SDS011;19889;52.546;13.348;2022-08-19T03:44:37;556.92;;;504.52;;
16522;SDS011;19889;52.546;13.348;2022-08-19T03:47:05;550.00;;;497.73;;
16522;SDS011;19889;52.546;13.348;2022-08-19T03:49:32;559.03;;;506.45;;
16522;SDS011;19889;52.546;13.348;2022-08-19T03:52:00;567.85;;;515.17;;
16522;SDS011;19889;52.546;13.348;2022-08-19T03:54:30;552.42;;;500.33;;
16522;SDS011;19889;52.546;13.348;2022-08-19T03:56:58;558.22;;;505.90;;
16522;SDS011;19889;52.546;13.348;2022-08-19T03:59:26;542.63;;;490.95;;
16522;SDS011;19889;52.546;13.348;2022-08-19T04:01:54;554.80;;;502.90;;
16522;SDS011;19889;52.546;13.348;2022-08-19T04:04:22;553.63;;;501.33;;
16522;SDS011;19889;52.546;13.348;2022-08-19T04:06:49;551.47;;;499.15;;
16522;SDS011;19889;52.546;13.348;2022-08-19T04:09:16;559.70;;;507.13;;
16522;SDS011;19889;52.546;13.348;2022-08-19T04:11:45;537.50;;;485.63;;
16522;SDS011;19889;52.546;13.348;2022-08-19T04:14:15;537.47;;;485.35;;
16522;SDS011;19889;52.546;13.348;2022-08-19T04:16:44;553.10;;;500.92;;
16522;SDS011;19889;52.546;13.348;2022-08-19T04:19:12;561.42;;;508.42;;
16522;SDS011;19889;52.546;13.348;2022-08-19T04:21:42;557.65;;;505.35;;
16522;SDS011;19889;52.546;13.348;2022-08-19T04:24:11;551.03;;;498.75;;
16522;SDS011;19889;52.546;13.348;2022-08-19T04:26:39;550.88;;;498.60;;
16522;SDS011;19889;52.546;13.348;2022-08-19T04:29:09;540.60;;;488.45;;
16522;SDS011;19889;52.546;13.348;2022-08-19T04:31:39;557.47;;;505.08;;
16522;SDS011;19889;52.546;13.348;2022-08-19T04:34:07;550.78;;;498.73;;
16522;SDS011;19889;52.546;13.348;2022-08-19T04:36:36;558.03;;;504.98;;
16522;SDS011;19889;52.546;13.348;2022-08-19T04:39:07;557.17;;;505.13;;
16522;SDS011;19889;52.546;13.348;2022-08-19T04:41:36;539.47;;;487.40;;
16522;SDS011;19889;52.546;13.348;2022-08-19T04:44:20;549.58;;;497.70;;
16522;SDS011;19889;52.546;13.348;2022-08-19T04:46:49;541.97;;;490.25;;
16522;SDS011;19889;52.546;13.348;2022-08-19T04:49:18;566.30;;;513.65;;
16522;SDS011;19889;52.546;13.348;2022-08-19T04:51:47;555.25;;;502.92;;
16522;SDS011;19889;52.546;13.348;2022-08-19T04:54:14;549.33;;;497.25;;
16522;SDS011;19889;52.546;13.348;2022-08-19T04:56:42;558.10;;;505.65;;
16522;SDS011;19889;52.546;13.348;2022-08-19T04:59:09;554.80;;;502.60;;
16522;SDS011;19889;52.546;13.348;2022-08-19T05:01:37;560.28;;;507.67;;
16522;SDS011;19889;52.546;13.348;2022-08-19T05:04:06;559.05;;;506.85;;
16522;SDS011;19889;52.546;13.348;2022-08-19T05:06:33;563.65;;;510.52;;
16522;SDS011;19889;52.546;13.348;2022-08-19T05:09:00;552.75;;;500.52;;
16522;SDS011;19889;52.546;13.348;2022-08-19T05:11:28;542.03;;;490.00;;
16522;SDS011;19889;52.546;13.348;2022-08-19T05:13:57;553.47;;;501.65;;
16522;SDS011;19889;52.546;13.348;2022-08-19T05:16:24;582.78;;;528.22;;
16522;SDS011;19889;52.546;13.348;2022-08-19T05:18:52;546.00;;;494.05;;
16522;SDS011;19889;52.546;13.348;2022-08-19T05:21:38;559.97;;;507.38;;
16522;SDS011;19889;52.546;13.348;2022-08-19T05:24:25;552.90;;;500.30;;
16522;SDS011;19889;52.546;13.348;2022-08-19T05:26:52;548.17;;;495.95;;
16522;SDS011;19889;52.546;13.348;2022-08-19T05:29:22;562.70;;;509.98;;
16522;SDS011;19889;52.546;13.348;2022-08-19T05:31:52;549.30;;;497.05;;
16522;SDS011;19889;52.546;13.348;2022-08-19T05:34:20;559.85;;;507.25;;
16522;SDS011;19889;52.546;13.348;2022-08-19T05:36:52;556.13;;;503.73;;
16522;SDS011;19889;52.546;13.348;2022-08-19T05:39:21;565.25;;;512.90;;
16522;SDS011;19889;52.546;13.348;2022-08-19T05:41:48;569.45;;;516.90;;
16522;SDS011;19889;52.546;13.348;2022-08-19T05:44:17;560.95;;;508.35;;
16522;SDS011;19889;52.546;13.348;2022-08-19T05:46:46;561.20;;;508.55;;
16522;SDS011;19889;52.546;13.348;2022-08-19T05:49:13;570.72;;;518.17;;
16522;SDS011;19889;52.546;13.348;2022-08-19T05:51:41;579.08;;;526.28;;
16522;SDS011;19889;52.546;13.348;2022-08-19T05:54:11;577.35;;;524.70;;
16522;SDS011;19889;52.546;13.348;2022-08-19T05:56:38;573.67;;;521.38;;
16522;SDS011;19889;52.546;13.348;2022-08-19T05:59:06;595.42;;;542.03;;
16522;SDS011;19889;52.546;13.348;2022-08-19T06:01:36;573.08;;;520.35;;
16522;SDS011;19889;52.546;13.348;2022-08-19T06:04:04;596.50;;;543.33;;
16522;SDS011;19889;52.546;13.348;2022-08-19T06:06:31;574.90;;;521.05;;
16522;SDS011;19889;52.546;13.348;2022-08-19T06:08:59;591.30;;;538.30;;
16522;SDS011;19889;52.546;13.348;2022-08-19T06:11:33;598.17;;;544.95;;
16522;SDS011;19889;52.546;13.348;2022-08-19T06:14:02;583.03;;;530.60;;
16522;SDS011;19889;52.546;13.348;2022-08-19T06:16:33;611.22;;;556.83;;
16522;SDS011;19889;52.546;13.348;2022-08-19T06:19:01;583.30;;;530.47;;
16522;SDS011;19889;52.546;13.348;2022-08-19T06:21:29;584.67;;;532.08;;
16522;SDS011;19889;52.546;13.348;2022-08-19T06:23:57;590.67;;;538.30;;
16522;SDS011;19889;52.546;13.348;2022-08-19T06:26:25;601.30;;;546.60;;
16522;SDS011;19889;52.546;13.348;2022-08-19T06:28:54;593.35;;;540.22;;
16522;SDS011;19889;52.546;13.348;2022-08-19T06:31:22;597.25;;;543.80;;
16522;SDS011;19889;52.546;13.348;2022-08-19T06:33:50;602.30;;;549.30;;
16522;SDS011;19889;52.546;13.348;2022-08-19T06:36:18;611.70;;;557.83;;
16522;SDS011;19889;52.546;13.348;2022-08-19T06:38:46;584.40;;;531.83;;
16522;SDS011;19889;52.546;13.348;2022-08-19T06:41:13;607.22;;;553.55;;
16522;SDS011;19889;52.546;13.348;2022-08-19T06:43:40;597.00;;;544.10;;
16522;SDS011;19889;52.546;13.348;2022-08-19T06:46:13;620.38;;;567.00;;
16522;SDS011;19889;52.546;13.348;2022-08-19T06:48:42;602.38;;;549.13;;
16522;SDS011;19889;52.546;13.348;2022-08-19T06:51:09;618.13;;;564.55;;
16522;SDS011;19889;52.546;13.348;2022-08-19T06:53:36;624.38;;;569.72;;
16522;SDS011;19889;52.546;13.348;2022-08-19T06:56:04;605.67;;;552.40;;
16522;SDS011;19889;52.546;13.348;2022-08-19T06:58:31;610.95;;;557.58;;
16522;SDS011;19889;52.546;13.348;2022-08-19T07:00:59;620.95;;;566.17;;
16522;SDS011;19889;52.546;13.348;2022-08-19T07:03:30;617.45;;;564.20;;
16522;SDS011;19889;52.546;13.348;2022-08-19T07:05:58;629.65;;;576.05;;
16522;SDS011;19889;52.546;13.348;2022-08-19T07:08:29;621.25;;;567.97;;
16522;SDS011;19889;52.546;13.348;2022-08-19T07:10:56;629.45;;;575.72;;
16522;SDS011;19889;52.546;13.348;2022-08-19T07:13:23;611.50;;;558.38;;
16522;SDS011;19889;52.546;13.348;2022-08-19T07:15:50;607.38;;;554.55;;
16522;SDS011;19889;52.546;13.348;2022-08-19T07:18:18;598.42;;;545.03;;
16522;SDS011;19889;52.546;13.348;2022-08-19T07:20:47;605.72;;;552.40;;
16522;SDS011;19889;52.546;13.348;2022-08-19T07:23:14;611.63;;;558.42;;
16522;SDS011;19889;52.546;13.348;2022-08-19T07:25:41;611.92;;;558.53;;
16522;SDS011;19889;52.546;13.348;2022-08-19T07:28:08;620.63;;;567.30;;
16522;SDS011;19889;52.546;13.348;2022-08-19T07:30:36;617.63;;;564.15;;
16522;SDS011;19889;52.546;13.348;2022-08-19T07:33:05;624.42;;;570.53;;
16522;SDS011;19889;52.546;13.348;2022-08-19T07:35:32;623.72;;;569.92;;
16522;SDS011;19889;52.546;13.348;2022-08-19T07:38:01;623.08;;;569.05;;
16522;SDS011;19889;52.546;13.348;2022-08-19T07:40:32;622.58;;;568.65;;
16522;SDS011;19889;52.546;13.348;2022-08-19T07:42:59;611.92;;;558.85;;
16522;SDS011;19889;52.546;13.348;2022-08-19T07:45:26;619.70;;;565.83;;
16522;SDS011;19889;52.546;13.348;2022-08-19T07:47:53;616.78;;;563.25;;
16522;SDS011;19889;52.546;13.348;2022-08-19T07:50:20;628.63;;;575.00;;
16522;SDS011;19889;52.546;13.348;2022-08-19T07:52:48;627.63;;;573.08;;
16522;SDS011;19889;52.546;13.348;2022-08-19T07:55:18;615.05;;;561.78;;
16522;SDS011;19889;52.546;13.348;2022-08-19T07:57:46;631.05;;;577.33;;
16522;SDS011;19889;52.546;13.348;2022-08-19T08:00:13;614.92;;;561.30;;
16522;SDS011;19889;52.546;13.348;2022-08-19T08:02:41;618.47;;;564.65;;
16522;SDS011;19889;52.546;13.348;2022-08-19T08:05:08;622.88;;;569.22;;
16522;SDS011;19889;52.546;13.348;2022-08-19T08:07:53;613.25;;;559.38;;
16522;SDS011;19889;52.546;13.348;2022-08-19T08:10:39;615.80;;;562.35;;
16522;SDS011;19889;52.546;13.348;2022-08-19T08:13:06;620.15;;;566.50;;
16522;SDS011;19889;52.546;13.348;2022-08-19T08:15:33;628.55;;;574.15;;
16522;SDS011;19889;52.546;13.348;2022-08-19T08:18:02;622.65;;;568.90;;
16522;SDS011;19889;52.546;13.348;2022-08-19T08:20:29;614.25;;;560.80;;
16522;SDS011;19889;52.546;13.348;2022-08-19T08:22:56;619.50;;;565.60;;
16522;SDS011;19889;52.546;13.348;2022-08-19T08:25:42;612.83;;;559.30;;
16522;SDS011;19889;52.546;13.348;2022-08-19T08:28:09;626.22;;;572.72;;
16522;SDS011;19889;52.546;13.348;2022-08-19T08:30:36;611.63;;;558.42;;
16522;SDS011;19889;52.546;13.348;2022-08-19T08:33:06;614.80;;;561.58;;
16522;SDS011;19889;52.546;13.348;2022-08-19T08:35:33;618.45;;;565.35;;
16522;SDS011;19889;52.546;13.348;2022-08-19T08:38:00;628.58;;;574.55;;
16522;SDS011;19889;52.546;13.348;2022-08-19T08:40:30;630.22;;;576.20;;
16522;SDS011;19889;52.546;13.348;2022-08-19T08:43:07;621.85;;;568.00;;
16522;SDS011;19889;52.546;13.348;2022-08-19T08:45:42;623.05;;;569.15;;
16522;SDS011;19889;52.546;13.348;2022-08-19T08:48:15;621.85;;;568.05;;
16522;SDS011;19889;52.546;13.348;2022-08-19T08:50:46;614.25;;;560.95;;
16522;SDS011;19889;52.546;13.348;2022-08-19T08:53:16;626.03;;;572.30;;
16522;SDS011;19889;52.546;13.348;2022-08-19T08:55:44;628.28;;;574.38;;
16522;SDS011;19889;52.546;13.348;2022-08-19T08:58:13;628.60;;;575.22;;
16522;SDS011;19889;52.546;13.348;2022-08-19T09:00:45;607.10;;;553.72;;
16522;SDS011;19889;52.546;13.348;2022-08-19T09:03:16;613.65;;;560.30;;
16522;SDS011;19889;52.546;13.348;2022-08-19T09:05:47;620.33;;;566.40;;
16522;SDS011;19889;52.546;13.348;2022-08-19T09:08:24;620.42;;;566.65;;
16522;SDS011;19889;52.546;13.348;2022-08-19T09:10:59;627.55;;;573.65;;
16522;SDS011;19889;52.546;13.348;2022-08-19T09:13:33;616.83;;;562.75;;
16522;SDS011;19889;52.546;13.348;2022-08-19T09:16:09;619.88;;;566.42;;
16522;SDS011;19889;52.546;13.348;2022-08-19T09:18:39;628.65;;;574.97;;
16522;SDS011;19889;52.546;13.348;2022-08-19T09:21:09;633.70;;;579.25;;
16522;SDS011;19889;52.546;13.348;2022-08-19T09:23:36;622.42;;;568.78;;
16522;SDS011;19889;52.546;13.348;2022-08-19T09:26:06;641.90;;;587.85;;
16522;SDS011;19889;52.546;13.348;2022-08-19T09:28:36;637.05;;;583.28;;
16522;SDS011;19889;52.546;13.348;2022-08-19T09:31:03;652.92;;;598.03;;
16522;SDS011;19889;52.546;13.348;2022-08-19T09:33:29;655.65;;;601.35;;
16522;SDS011;19889;52.546;13.348;2022-08-19T09:36:01;644.65;;;590.53;;
16522;SDS011;19889;52.546;13.348;2022-08-19T09:38:29;665.53;;;611.10;;
16522;SDS011;19889;52.546;13.348;2022-08-19T09:41:01;661.78;;;606.95;;
16522;SDS011;19889;52.546;13.348;2022-08-19T09:43:29;662.97;;;608.88;;
16522;SDS011;19889;52.546;13.348;2022-08-19T09:45:58;675.45;;;621.17;;
16522;SDS011;19889;52.546;13.348;2022-08-19T09:48:25;684.25;;;629.13;;
16522;SDS011;19889;52.546;13.348;2022-08-19T09:50:52;673.47;;;618.92;;
16522;SDS011;19889;52.546;13.348;2022-08-19T09:53:19;678.22;;;623.42;;
16522;SDS011;19889;52.546;13.348;2022-08-19T09:55:47;686.47;;;632.10;;
16522;SDS011;19889;52.546;13.348;2022-08-19T09:58:14;677.95;;;623.45;;
16522;SDS011;19889;52.546;13.348;2022-08-19T10:00:41;686.15;;;631.20;;
16522;SDS011;19889;52.546;13.348;2022-08-19T10:03:09;674.35;;;619.75;;
16522;SDS011;19889;52.546;13.348;2022-08-19T10:05:36;683.70;;;629.00;;
16522;SDS011;19889;52.546;13.348;2022-08-19T10:08:15;690.08;;;635.05;;
16522;SDS011;19889;52.546;13.348;2022-08-19T10:10:44;683.72;;;629.17;;
16522;SDS011;19889;52.546;13.348;2022-08-19T10:13:12;666.78;;;612.08;;
16522;SDS011;19889;52.546;13.348;2022-08-19T10:15:40;680.38;;;625.55;;
16522;SDS011;19889;52.546;13.348;2022-08-19T10:18:08;681.22;;;626.47;;
16522;SDS011;19889;52.546;13.348;2022-08-19T10:20:36;679.70;;;625.05;;
16522;SDS011;19889;52.546;13.348;2022-08-19T10:23:03;671.92;;;617.72;;
16522;SDS011;19889;52.546;13.348;2022-08-19T10:25:31;664.25;;;610.35;;
16522;SDS011;19889;52.546;13.348;2022-08-19T10:27:59;682.65;;;628.08;;
16522;SDS011;19889;52.546;13.348;2022-08-19T10:30:26;661.88;;;607.58;;
16522;SDS011;19889;52.546;13.348;2022-08-19T10:32:54;687.90;;;633.58;;
16522;SDS011;19889;52.546;13.348;2022-08-19T10:35:22;678.75;;;624.38;;
16522;SDS011;19889;52.546;13.348;2022-08-19T10:37:50;671.78;;;617.13;;
16522;SDS011;19889;52.546;13.348;2022-08-19T10:40:16;681.75;;;627.05;;
16522;SDS011;19889;52.546;13.348;2022-08-19T10:42:44;678.13;;;623.35;;
16522;SDS011;19889;52.546;13.348;2022-08-19T10:45:10;671.97;;;616.97;;
16522;SDS011;19889;52.546;13.348;2022-08-19T10:47:37;665.08;;;611.15;;
16522;SDS011;19889;52.546;13.348;2022-08-19T10:50:04;680.10;;;624.95;;
16522;SDS011;19889;52.546;13.348;2022-08-19T10:52:50;661.83;;;607.70;;
16522;SDS011;19889;52.546;13.348;2022-08-19T10:55:18;669.10;;;614.83;;
16522;SDS011;19889;52.546;13.348;2022-08-19T10:58:09;654.83;;;601.15;;
16522;SDS011;19889;52.546;13.348;2022-08-19T11:00:38;673.10;;;618.85;;
16522;SDS011;19889;52.546;13.348;2022-08-19T11:03:05;661.20;;;606.90;;
16522;SDS011;19889;52.546;13.348;2022-08-19T11:05:32;674.30;;;620.05;;
16522;SDS011;19889;52.546;13.348;2022-08-19T11:08:00;652.72;;;598.25;;
16522;SDS011;19889;52.546;13.348;2022-08-19T11:10:27;648.63;;;594.95;;
16522;SDS011;19889;52.546;13.348;2022-08-19T11:12:54;675.85;;;621.25;;
16522;SDS011;19889;52.546;13.348;2022-08-19T11:15:21;661.17;;;606.72;;
16522;SDS011;19889;52.546;13.348;2022-08-19T11:17:51;662.10;;;607.42;;
16522;SDS011;19889;52.546;13.348;2022-08-19T11:20:19;667.15;;;612.90;;
16522;SDS011;19889;52.546;13.348;2022-08-19T11:22:45;654.30;;;599.70;;
16522;SDS011;19889;52.546;13.348;2022-08-19T11:25:14;654.58;;;600.00;;
16522;SDS011;19889;52.546;13.348;2022-08-19T11:27:41;651.83;;;598.40;;
16522;SDS011;19889;52.546;13.348;2022-08-19T11:30:10;665.85;;;611.40;;
16522;SDS011;19889;52.546;13.348;2022-08-19T11:32:39;653.88;;;599.85;;
16522;SDS011;19889;52.546;13.348;2022-08-19T11:35:07;663.75;;;609.33;;
16522;SDS011;19889;52.546;13.348;2022-08-19T11:37:35;644.85;;;591.35;;
16522;SDS011;19889;52.546;13.348;2022-08-19T11:40:03;644.78;;;590.72;;
16522;SDS011;19889;52.546;13.348;2022-08-19T11:42:32;662.85;;;608.42;;
16522;SDS011;19889;52.546;13.348;2022-08-19T11:45:17;659.45;;;604.95;;
16522;SDS011;19889;52.546;13.348;2022-08-19T11:47:44;650.20;;;596.70;;
16522;SDS011;19889;52.546;13.348;2022-08-19T11:50:11;657.67;;;602.97;;
16522;SDS011;19889;52.546;13.348;2022-08-19T11:52:38;664.33;;;609.33;;
16522;SDS011;19889;52.546;13.348;2022-08-19T11:55:06;660.55;;;605.67;;
16522;SDS011;19889;52.546;13.348;2022-08-19T11:57:35;656.45;;;601.60;;
16522;SDS011;19889;52.546;13.348;2022-08-19T12:00:02;657.83;;;603.03;;
16522;SDS011;19889;52.546;13.348;2022-08-19T12:02:31;655.10;;;601.03;;
16522;SDS011;19889;52.546;13.348;2022-08-19T12:04:58;635.70;;;582.28;;
16522;SDS011;19889;52.546;13.348;2022-08-19T12:07:28;664.88;;;610.25;;
16522;SDS011;19889;52.546;13.348;2022-08-19T12:09:56;654.75;;;600.90;;
16522;SDS011;19889;52.546;13.348;2022-08-19T12:12:23;646.30;;;592.72;;
16522;SDS011;19889;52.546;13.348;2022-08-19T12:14:52;651.15;;;597.33;;
16522;SDS011;19889;52.546;13.348;2022-08-19T12:17:21;641.88;;;588.22;;
16522;SDS011;19889;52.546;13.348;2022-08-19T12:19:48;652.70;;;598.53;;
16522;SDS011;19889;52.546;13.348;2022-08-19T12:22:15;656.90;;;602.78;;
16522;SDS011;19889;52.546;13.348;2022-08-19T12:24:43;659.15;;;604.70;;
16522;SDS011;19889;52.546;13.348;2022-08-19T12:27:10;661.83;;;607.63;;
16522;SDS011;19889;52.546;13.348;2022-08-19T12:29:37;657.33;;;603.83;;
16522;SDS011;19889;52.546;13.348;2022-08-19T12:32:05;658.00;;;603.88;;
16522;SDS011;19889;52.546;13.348;2022-08-19T12:34:32;655.97;;;601.80;;
16522;SDS011;19889;52.546;13.348;2022-08-19T12:37:01;667.42;;;613.55;;
16522;SDS011;19889;52.546;13.348;2022-08-19T12:39:29;658.38;;;604.92;;
16522;SDS011;19889;52.546;13.348;2022-08-19T12:41:59;671.50;;;617.38;;
16522;SDS011;19889;52.546;13.348;2022-08-19T12:44:26;664.35;;;610.50;;
16522;SDS011;19889;52.546;13.348;2022-08-19T12:46:53;681.53;;;627.05;;
16522;SDS011;19889;52.546;13.348;2022-08-19T12:49:21;675.63;;;621.00;;
16522;SDS011;19889;52.546;13.348;2022-08-19T12:51:48;675.03;;;620.13;;
16522;SDS011;19889;52.546;13.348;2022-08-19T12:54:15;697.92;;;640.42;;
16522;SDS011;19889;52.546;13.348;2022-08-19T12:56:42;681.97;;;627.45;;
16522;SDS011;19889;52.546;13.348;2022-08-19T12:59:09;675.63;;;621.67;;
16522;SDS011;19889;52.546;13.348;2022-08-19T13:01:36;670.97;;;617.42;;
16522;SDS011;19889;52.546;13.348;2022-08-19T13:04:03;678.42;;;623.97;;
16522;SDS011;19889;52.546;13.348;2022-08-19T13:06:31;696.55;;;640.58;;
16522;SDS011;19889;52.546;13.348;2022-08-19T13:08:58;684.22;;;629.60;;
16522;SDS011;19889;52.546;13.348;2022-08-19T13:11:25;682.55;;;628.10;;
16522;SDS011;19889;52.546;13.348;2022-08-19T13:13:53;674.75;;;620.72;;
16522;SDS011;19889;52.546;13.348;2022-08-19T13:16:21;687.20;;;631.30;;
16522;SDS011;19889;52.546;13.348;2022-08-19T13:18:48;678.63;;;624.38;;
16522;SDS011;19889;52.546;13.348;2022-08-19T13:21:17;675.33;;;620.70;;
16522;SDS011;19889;52.546;13.348;2022-08-19T13:23:47;666.92;;;612.75;;
16522;SDS011;19889;52.546;13.348;2022-08-19T13:26:14;669.22;;;614.63;;
16522;SDS011;19889;52.546;13.348;2022-08-19T13:28:43;660.70;;;606.28;;
16522;SDS011;19889;52.546;13.348;2022-08-19T13:31:29;672.63;;;618.42;;
16522;SDS011;19889;52.546;13.348;2022-08-19T13:34:15;665.85;;;611.80;;
16522;SDS011;19889;52.546;13.348;2022-08-19T13:36:43;683.15;;;628.17;;
16522;SDS011;19889;52.546;13.348;2022-08-19T13:39:11;669.00;;;614.67;;
16522;SDS011;19889;52.546;13.348;2022-08-19T13:41:42;680.83;;;626.67;;
16522;SDS011;19889;52.546;13.348;2022-08-19T13:44:13;664.95;;;610.67;;
16522;SDS011;19889;52.546;13.348;2022-08-19T13:46:40;672.25;;;617.28;;
16522;SDS011;19889;52.546;13.348;2022-08-19T13:49:09;688.53;;;634.03;;
16522;SDS011;19889;52.546;13.348;2022-08-19T13:51:37;677.55;;;623.35;;
16522;SDS011;19889;52.546;13.348;2022-08-19T13:54:05;669.17;;;614.75;;